Time;durP1;ratioP1;P1;durP2;ratioP2;P2;SDS_P1;SDS_P2;PMS_P1;PMS_P2;Temp;Humidity;BMP_temperature;BMP_pressure;BME280_temperature;BME280_humidity;BME280_pressure;Samples;Min_cycle;Max_cycle;Signal;HPM_P1;HPM_P2
2021/06/10 00:21:48;;;;;;;7.83;4.47;;;;;;;21.41;70.38;101658.25;5090492;23;20036;31
2021/06/10 00:31:18;;;;;;;7.32;4.53;;;;;;;21.05;72.13;101661.34;3589316;23;20410;-77
2021/06/10 00:33:49;;;;;;;7.15;4.47;;;;;;;20.98;72.56;101661.13;4860735;23;20060;-77
2021/06/10 00:36:19;;;;;;;7.80;4.60;;;;;;;20.70;73.83;101661.19;4845930;29;20061;-77
2021/06/10 00:44:53;;;;;;;6.65;5.20;;;;;;;20.32;75.55;101665.72;4938308;23;20054;-77
2021/06/10 00:54:29;;;;;;;9.82;5.35;;;;;;;20.20;75.66;101663.78;510333;27;21253;-77
2021/06/10 01:31:24;;;;;;;6.68;4.90;;;;;;;20.57;72.28;101636.44;4829680;29;20054;-82
2021/06/10 01:40:54;;;;;;;8.05;4.80;;;;;;;20.45;71.99;101631.69;5250022;23;20057;-88
2021/06/10 01:53:24;;;;;;;7.15;5.30;;;;;;;20.24;72.94;101635.91;5419479;23;20415;-77
2021/06/10 01:55:55;;;;;;;6.80;5.10;;;;;;;20.14;73.61;101628.78;5529785;23;21430;-84
2021/06/10 02:02:04;;;;;;;7.03;4.93;;;;;;;20.77;70.72;101635.38;4989795;23;20037;-81
2021/06/10 02:08:10;;;;;;;10.93;5.13;;;;;;;20.71;69.27;101634.03;5503572;23;20065;-77
2021/06/10 02:10:39;;;;;;;7.90;5.28;;;;;;;20.37;70.54;101629.06;4881906;23;20052;-81
2021/06/10 02:16:19;;;;;;;8.52;4.80;;;;;;;19.89;71.95;101630.06;4878664;23;20053;-79
2021/06/10 02:24:59;;;;;;;7.55;5.22;;;;;;;19.62;71.57;101634.41;5437305;23;20325;-79
2021/06/10 02:30:40;;;;;;;7.75;5.35;;;;;;;19.43;72.19;101634.22;4843934;29;20057;-78
2021/06/10 02:55:07;;;;;;;7.75;4.70;;;;;;;19.01;70.92;101636.41;5856446;23;20036;31
2021/06/10 02:57:35;;;;;;;9.95;5.30;;;;;;;18.95;71.36;101628.63;4952967;23;20375;-78
2021/06/10 03:00:06;;;;;;;8.43;5.07;;;;;;;19.05;70.89;101628.97;4841129;23;20092;-75
2021/06/10 03:18:30;;;;;;;7.28;4.95;;;;;;;18.98;70.24;101625.13;5339404;23;20077;-79
2021/06/10 03:20:59;;;;;;;7.60;4.57;;;;;;;18.76;71.11;101629.16;4780284;29;20055;-83
2021/06/10 03:26:55;;;;;;;7.80;5.10;;;;;;;19.23;69.19;101620.34;5088746;23;20207;-79
2021/06/10 03:39:16;;;;;;;7.93;4.80;;;;;;;18.92;69.44;101613.34;5475193;23;20259;-81
2021/06/10 03:51:51;;;;;;;7.00;4.85;;;;;;;18.55;70.15;101608.88;4929419;23;20070;-80
2021/06/10 03:54:21;;;;;;;6.88;4.70;;;;;;;18.26;71.30;101603.41;4919379;23;20062;-78
2021/06/10 03:56:54;;;;;;;7.15;5.10;;;;;;;18.40;70.72;101597.53;4863611;23;20424;-81
2021/06/10 04:09:39;;;;;;;6.75;4.50;;;;;;;18.54;70.26;101587.72;5257695;23;20341;-80
2021/06/10 04:25:13;;;;;;;7.70;4.55;;;;;;;18.87;68.53;101615.56;980860;23;20337;31
2021/06/10 04:28:32;;;;;;;9.70;4.78;;;;;;;18.76;68.70;101617.97;4898200;29;20524;-79
2021/06/10 04:53:53;;;;;;;8.00;3.47;;;;;;;19.07;60.84;101623.81;4934824;23;20051;-81
2021/06/10 04:56:21;;;;;;;5.95;3.28;;;;;;;19.38;59.03;101625.25;4907761;29;20051;-78
2021/06/10 05:05:23;;;;;;;6.97;3.20;;;;;;;19.95;56.71;101635.03;5215670;23;20057;-76
2021/06/10 05:28:21;;;;;;;10.48;3.40;;;;;;;19.73;55.42;101620.78;4841821;29;20072;-78
2021/06/10 05:34:32;;;;;;;4.78;2.83;;;;;;;20.11;53.74;101618.31;5301963;23;20071;-88
2021/06/10 05:40:31;;;;;;;10.50;3.35;;;;;;;19.70;54.21;101618.69;5369379;23;20061;-79
2021/06/10 05:53:02;;;;;;;4.00;2.08;;;;;;;20.60;45.50;101633.75;4875728;29;20064;-79
2021/06/10 06:15:14;;;;;;;7.68;2.80;;;;;;;20.46;41.99;101638.13;2115227;23;20060;-85
2021/06/10 06:24:13;;;;;;;8.80;1.90;;;;;;;20.29;41.18;101644.88;4883182;23;20064;-83
2021/06/10 06:26:43;;;;;;;11.20;2.05;;;;;;;20.28;41.38;101645.19;4788034;29;20054;-83
2021/06/10 06:46:44;;;;;;;6.95;1.75;;;;;;;20.08;42.60;101672.19;4805544;29;20055;-81
2021/06/10 06:49:12;;;;;;;11.30;2.10;;;;;;;20.60;42.42;101670.13;4824876;29;20059;-79
2021/06/10 06:51:40;;;;;;;8.88;2.42;;;;;;;20.07;41.21;101679.75;4760509;29;20050;-84
2021/06/10 06:54:07;;;;;;;10.32;1.73;;;;;;;20.35;41.36;101678.97;4852391;29;20055;-81
2021/06/10 06:56:37;;;;;;;7.72;1.67;;;;;;;20.40;40.24;101684.34;4763968;29;20055;-80
2021/06/10 06:59:06;;;;;;;10.10;1.90;;;;;;;20.51;39.20;101683.47;4773856;29;20058;-76
2021/06/10 07:01:34;;;;;;;9.95;2.30;;;;;;;20.50;40.50;101684.66;4787424;29;20070;-77
2021/06/10 07:04:02;;;;;;;9.57;2.00;;;;;;;20.74;40.63;101684.53;4846188;29;20071;-79
2021/06/10 07:06:59;;;;;;;;;;;;;;;;;;;;;
2021/06/10 07:10:40;;;;;;;11.30;2.00;;;;;;;20.84;38.78;101691.56;4771813;29;20419;-79
2021/06/10 07:13:10;;;;;;;12.18;1.80;;;;;;;20.44;39.51;101694.47;4837367;29;20053;-78
2021/06/10 07:15:39;;;;;;;8.70;2.03;;;;;;;20.65;40.21;101691.44;4851780;29;20053;-82
2021/06/10 07:18:07;;;;;;;6.30;2.13;;;;;;;21.02;39.29;101692.91;4866488;29;20485;-80
2021/06/10 07:21:28;;;;;;;;;;;;;;;;;;;;;
2021/06/10 07:24:10;;;;;;;7.97;2.50;;;;;;;21.23;39.09;101697.03;4842674;29;20558;-83
2021/06/10 07:26:43;;;;;;;6.82;2.25;;;;;;;21.55;39.23;101700.66;4737445;29;20075;-82
2021/06/10 07:29:30;;;;;;;13.60;2.30;;;;;;;20.84;39.62;101691.56;4750442;30;20056;-85
2021/06/10 07:32:24;;;;;;;6.18;2.20;;;;;;;21.16;39.24;101693.28;4743141;29;20150;-85
2021/06/10 07:35:39;;;;;;;7.18;2.20;;;;;;;21.78;39.42;101689.59;4711735;30;20052;-80
2021/06/10 07:38:13;;;;;;;7.22;2.38;;;;;;;21.27;38.70;101691.53;4818556;29;20401;-84
2021/06/10 07:40:51;;;;;;;12.02;2.33;;;;;;;21.66;38.66;101684.09;4755978;29;20052;-79
2021/06/10 07:43:35;;;;;;;11.45;2.30;;;;;;;21.20;38.68;101694.16;4750790;30;20068;-81
2021/06/10 07:46:09;;;;;;;5.30;2.05;;;;;;;21.06;38.33;101685.41;4743721;29;20075;-82
2021/06/10 07:49:02;;;;;;;12.45;2.03;;;;;;;20.50;39.54;101693.06;4755454;29;20061;-81
2021/06/10 07:51:32;;;;;;;6.63;1.98;;;;;;;20.47;39.74;101695.75;4762748;29;20049;-80
2021/06/10 07:54:00;;;;;;;11.00;2.15;;;;;;;20.91;39.65;101686.16;4782498;29;20173;-80
2021/06/10 07:56:47;;;;;;;12.65;2.55;;;;;;;20.81;39.52;101695.09;4777044;29;20061;-83
2021/06/10 07:59:35;;;;;;;7.28;2.20;;;;;;;21.76;38.65;101692.75;4740663;30;20074;-79
2021/06/10 08:02:03;;;;;;;11.07;2.17;;;;;;;21.31;38.21;101709.25;4726131;30;20435;-79
2021/06/10 08:08:02;;;;;;;10.77;2.40;;;;;;;22.51;36.75;101696.03;4772948;29;20055;-80
2021/06/10 08:11:39;;;;;;;15.02;2.95;;;;;;;22.79;35.97;101685.38;4747643;29;20550;-84
2021/06/10 08:14:57;;;;;;;8.75;2.35;;;;;;;22.82;36.21;101681.03;4768719;29;20059;-77
2021/06/10 08:17:25;;;;;;;14.57;2.35;;;;;;;22.61;36.66;101689.03;4740044;29;20066;-80
2021/06/10 08:19:53;;;;;;;7.38;2.63;;;;;;;22.93;35.79;101682.00;4770613;30;20062;-85
2021/06/10 08:22:46;;;;;;;8.13;2.50;;;;;;;22.95;35.16;101688.06;4743935;30;20397;-84
2021/06/10 08:25:15;;;;;;;12.50;2.13;;;;;;;22.76;35.89;101680.50;4776790;29;20063;-80
2021/06/10 08:54:06;;;;;;;8.65;2.13;;;;;;;23.79;36.85;101655.78;5371977;23;20069;-86
2021/06/10 08:57:12;;;;;;;11.15;2.78;;;;;;;24.21;35.61;101659.19;4813636;29;20038;-90
2021/06/10 10:03:52;;;;;;;8.40;2.03;;;;;;;23.66;37.96;101662.78;4986340;23;20078;-75
2021/06/10 10:11:00;;;;;;;10.07;2.47;;;;;;;24.60;35.89;101653.22;4830500;24;20069;-80
2021/06/10 10:13:32;;;;;;;7.72;2.72;;;;;;;24.39;36.54;101656.59;4822058;29;20058;-84
2021/06/10 10:22:30;;;;;;;7.03;2.67;;;;;;;25.07;36.01;101647.66;4802710;29;20404;-84
2021/06/10 10:25:05;;;;;;;10.60;2.58;;;;;;;25.04;36.30;101651.25;4816841;29;20051;-87
2021/06/10 10:27:33;;;;;;;11.48;2.75;;;;;;;24.73;35.94;101641.28;4776021;29;20507;-84
2021/06/10 10:30:02;;;;;;;7.85;2.92;;;;;;;24.64;36.65;101646.41;4788246;29;20069;-85
2021/06/10 10:32:30;;;;;;;10.20;2.72;;;;;;;24.65;37.26;101644.41;4792572;29;20042;-83
2021/06/10 10:35:19;;;;;;;7.45;2.85;;;;;;;25.03;36.83;101635.53;4788110;29;20223;-84
2021/06/10 10:37:57;;;;;;;9.48;2.78;;;;;;;24.50;37.24;101634.97;4805499;29;20048;-86
2021/06/10 10:40:52;;;;;;;7.20;2.72;;;;;;;24.77;36.69;101632.88;4803846;29;20050;-82
2021/06/10 10:43:24;;;;;;;8.95;2.70;;;;;;;24.81;37.42;101631.72;4850384;29;20066;-90
2021/06/10 10:46:07;;;;;;;9.52;3.22;;;;;;;24.62;37.84;101631.88;4773669;29;20063;-85
2021/06/10 10:48:46;;;;;;;7.88;3.17;;;;;;;24.54;38.33;101641.47;4777140;29;20059;-83
2021/06/10 10:51:41;;;;;;;6.13;2.33;;;;;;;24.96;37.68;101633.47;4765021;29;20054;-85
2021/06/10 10:54:32;;;;;;;7.00;2.95;;;;;;;25.20;37.41;101630.06;4764701;29;20518;-81
2021/06/10 10:57:03;;;;;;;6.38;2.90;;;;;;;25.28;37.25;101637.38;4856696;29;20047;-81
2021/06/10 10:59:40;;;;;;;;;;;;;;;25.34;37.10;101629.34;4784269;29;20050;-83
2021/06/10 11:02:10;;;;;;;8.30;3.00;;;;;;;25.25;37.61;101626.06;4851842;29;20286;-83
2021/06/10 11:04:55;;;;;;;7.00;2.72;;;;;;;25.42;37.70;101619.75;4751428;29;20066;-85
2021/06/10 11:07:39;;;;;;;12.10;4.13;;;;;;;25.56;37.24;101614.22;4808607;29;20065;-81
2021/06/10 11:10:15;;;;;;;6.30;2.72;;;;;;;25.76;37.18;101611.91;4793391;29;20059;-85
2021/06/10 11:16:22;;;;;;;;;;;;;;;;;;;;;
2021/06/10 12:41:22;;;;;;;6.00;3.35;;;;;;;25.19;41.50;101576.88;4915738;23;20061;-89
2021/06/10 12:43:54;;;;;;;8.68;3.38;;;;;;;25.21;41.47;101580.91;4843315;29;20525;-86
2021/06/10 12:46:23;;;;;;;6.57;3.10;;;;;;;25.25;41.70;101575.28;4895111;29;20430;-88
2021/06/10 12:48:59;;;;;;;7.32;3.50;;;;;;;25.44;41.04;101556.13;4848032;29;20042;-86
2021/06/10 12:51:31;;;;;;;9.23;3.55;;;;;;;25.51;40.84;101553.34;4829403;29;20447;-88
2021/06/10 12:57:02;;;;;;;7.07;3.42;;;;;;;25.33;41.33;101551.59;4851733;29;20068;-78
2021/06/10 13:12:25;;;;;;;10.35;3.40;;;;;;;25.92;40.53;101539.81;573395;23;20330;-75
2021/06/10 13:33:18;;;;;;;9.00;3.22;;;;;;;26.74;38.97;101518.22;886984;23;20512;-74
2021/06/10 15:06:09;;;;;;;;;;;;;;;;;;;;;
2021/06/10 17:43:42;;;;;;;5.47;2.60;;;;;;;26.34;41.72;101390.22;5379390;23;20664;-74
2021/06/10 19:49:22;;;;;;;3.78;2.13;;;;;;;24.15;53.73;101462.81;4887451;28;20064;-78
2021/06/10 19:51:49;;;;;;;7.22;2.35;;;;;;;23.99;54.12;101465.06;4837171;29;20053;-84
2021/06/10 19:54:20;;;;;;;3.90;2.05;;;;;;;24.01;54.27;101468.31;4812810;29;20064;-87
2021/06/10 19:56:51;;;;;;;6.10;2.50;;;;;;;23.84;55.07;101471.72;4880292;29;20040;-85
2021/06/10 19:59:32;;;;;;;5.40;2.50;;;;;;;24.06;54.31;101480.03;4847276;29;20072;-83
2021/06/10 20:02:16;;;;;;;4.28;2.10;;;;;;;24.33;53.81;101478.69;4875491;29;20049;-88
2021/06/10 20:04:46;;;;;;;5.47;2.40;;;;;;;24.12;54.05;101478.50;4843335;29;20148;-87
2021/06/10 20:07:16;;;;;;;3.17;2.10;;;;;;;24.22;54.29;101486.22;4873927;29;20381;-81
2021/06/10 20:09:46;;;;;;;4.47;2.67;;;;;;;23.83;55.54;101482.19;4843843;29;20052;-86
2021/06/10 20:12:25;;;;;;;4.32;2.50;;;;;;;23.83;55.57;101482.19;4835777;29;20298;-89
2021/06/10 20:14:58;;;;;;;3.70;2.22;;;;;;;23.77;55.78;101492.13;4845669;29;20049;-87
2021/06/10 20:17:49;;;;;;;4.40;2.35;;;;;;;23.69;56.23;101496.06;4895103;29;20100;-89
2021/06/10 20:20:31;;;;;;;5.78;2.42;;;;;;;23.87;56.83;101496.28;4877191;29;20044;-90
2021/06/10 20:23:00;;;;;;;4.00;2.20;;;;;;;24.18;54.69;101499.44;4903516;29;20075;-84
2021/06/10 20:25:27;;;;;;;7.25;2.47;;;;;;;24.08;55.16;101500.16;4872591;29;20063;-85
2021/06/10 20:30:46;;;;;;;5.82;2.70;;;;;;;23.68;56.33;101499.25;4874864;29;20140;-85
2021/06/10 20:33:13;;;;;;;4.47;2.42;;;;;;;23.35;57.37;101508.47;4859530;29;20072;-83
2021/06/10 20:35:48;;;;;;;5.60;2.72;;;;;;;23.30;57.46;101511.59;4869051;29;20057;-86
2021/06/10 20:38:23;;;;;;;4.25;3.00;;;;;;;23.31;57.87;101514.03;4847005;29;20058;-84
2021/06/10 20:41:06;;;;;;;8.23;3.33;;;;;;;23.27;57.81;101509.53;4836218;29;20057;-79
2021/06/10 20:43:33;;;;;;;5.10;2.88;;;;;;;23.46;57.15;101523.50;4854323;29;20210;-89
2021/06/10 20:46:04;;;;;;;5.00;2.70;;;;;;;23.20;58.20;101512.25;4854256;29;20068;-86
2021/06/10 20:48:32;;;;;;;12.68;3.35;;;;;;;23.32;58.29;101518.50;4855965;29;20133;-90
2021/06/10 21:20:56;;;;;;;6.13;3.70;;;;;;;23.95;55.41;101538.19;5481027;23;20032;-81
2021/06/10 21:24:01;;;;;;;7.50;4.10;;;;;;;23.63;55.86;101538.97;4827237;29;20058;-82
2021/06/10 21:26:43;;;;;;;6.72;4.60;;;;;;;23.09;57.39;101536.56;4799398;29;20434;-80
2021/06/10 21:29:12;;;;;;;7.72;5.82;;;;;;;23.11;57.11;101535.00;4781339;29;20089;-82
2021/06/10 21:32:02;;;;;;;8.45;5.72;;;;;;;22.85;58.06;101546.22;4827117;29;20054;-83
2021/06/10 21:34:31;;;;;;;8.40;5.05;;;;;;;22.94;57.77;101546.78;4823201;29;20054;-79
2021/06/10 21:37:01;;;;;;;9.55;5.80;;;;;;;23.15;57.10;101535.84;4809226;29;20061;-82
2021/06/10 21:39:47;;;;;;;9.35;5.63;;;;;;;23.03;57.49;101540.91;4864991;29;20070;-84
2021/06/10 21:42:48;;;;;;;;;;;;;;;22.90;57.90;101547.91;4821402;29;20046;-80
2021/06/10 21:46:02;;;;;;;6.43;5.18;;;;;;;23.09;57.83;101542.19;4857778;29;19931;-82
2021/06/10 21:48:31;;;;;;;7.07;5.72;;;;;;;23.07;57.34;101533.31;4842396;29;20054;-83
2021/06/10 21:51:02;;;;;;;8.35;6.00;;;;;;;22.79;58.43;101544.91;4847631;29;20076;-80
2021/06/10 21:53:51;;;;;;;12.48;6.20;;;;;;;22.71;58.42;101536.75;4835596;29;20090;-83
2021/06/10 21:56:41;;;;;;;9.23;6.70;;;;;;;22.51;58.41;101546.41;4850371;29;20061;-85
2021/06/10 21:59:41;;;;;;;;;;;;;;;;;;;;;
2021/06/10 22:02:21;;;;;;;7.70;6.35;;;;;;;22.54;58.66;101552.13;4809379;29;20518;-79
2021/06/10 22:04:50;;;;;;;8.23;6.32;;;;;;;22.75;58.28;101548.88;4842497;29;20423;-83
2021/06/10 22:07:18;;;;;;;7.22;6.20;;;;;;;22.77;58.26;101554.91;4846200;29;20058;-83
2021/06/10 22:10:01;;;;;;;7.72;6.25;;;;;;;22.65;58.91;101546.69;4825867;29;20049;-78
2021/06/10 22:13:36;;;;;;;7.63;6.00;;;;;;;22.46;59.66;101550.31;4777035;30;20063;-81
2021/06/10 22:16:07;;;;;;;8.95;5.60;;;;;;;22.46;59.79;101549.50;4754044;30;20070;-84
2021/06/10 22:19:35;;;;;;;9.32;7.43;;;;;;;22.77;58.75;101550.09;4898297;23;20519;-83
2021/06/10 22:22:48;;;;;;;7.80;5.85;;;;;;;22.94;58.03;101557.22;4854650;23;20053;31
2021/06/10 22:26:10;;;;;;;7.03;5.77;;;;;;;22.96;57.96;101547.19;4848193;29;20072;-78
2021/06/10 22:29:23;;;;;;;6.47;4.90;;;;;;;22.45;59.54;101556.31;4878314;29;20065;-83
2021/06/10 22:35:22;;;;;;;7.05;4.60;;;;;;;22.11;61.78;101552.44;4944577;29;20051;-78
2021/06/10 22:45:15;;;;;;;5.82;3.58;;;;;;;21.89;63.81;101562.44;1294082;23;20053;-76
2021/06/10 22:47:45;;;;;;;7.65;4.13;;;;;;;21.88;63.92;101549.59;4901667;23;20418;-81
2021/06/10 22:53:40;;;;;;;5.32;3.75;;;;;;;21.85;63.78;101558.75;4857905;29;20063;-82
2021/06/10 23:00:34;;;;;;;5.55;3.40;;;;;;;21.92;64.07;101555.28;4849701;29;20061;-81
2021/06/10 23:09:47;;;;;;;5.75;3.00;;;;;;;21.59;64.78;101554.94;5028363;23;20057;-77
2021/06/10 23:19:10;;;;;;;5.70;2.50;;;;;;;21.45;64.15;101555.44;4910664;29;20405;-80
2021/06/10 23:28:12;;;;;;;3.90;2.55;;;;;;;21.30;64.30;101563.91;5487703;23;20090;-82
2021/06/10 23:37:44;;;;;;;4.97;2.67;;;;;;;21.20;64.19;101557.66;1636226;23;20505;-85
2021/06/10 23:40:15;;;;;;;8.30;2.92;;;;;;;21.16;64.59;101562.41;4812063;29;20054;-84
2021/06/10 23:42:59;;;;;;;5.90;2.63;;;;;;;21.07;64.02;101558.97;4829648;29;20046;-86
